Time;durP1;ratioP1;P1;durP2;ratioP2;P2;SDS_P1;SDS_P2;PMS_P1;PMS_P2;Temp;Humidity;BMP_temperature;BMP_pressure;BME280_temperature;BME280_humidity;BME280_pressure;Samples;Min_cycle;Max_cycle;Signal;HPM_P1;HPM_P2
2023/07/05 00:00:29;;;;;;;;;;;;;;;29.89;35.65;94018.22;4909124;29;9086;-61
2023/07/05 00:02:56;;;;;;;;;;;;;;;29.87;35.33;94020.81;4906313;29;7208;-61
2023/07/05 00:05:25;;;;;;;;;;;;;;;29.86;36.03;94018.59;4906168;29;7290;-62
2023/07/05 00:07:59;;;;;;;;;;;;;;;29.84;34.90;94016.34;4905208;29;9131;-63
2023/07/05 00:10:27;;;;;;;;;;;;;;;29.86;35.23;94024.16;4906665;29;7070;-62
2023/07/05 00:13:39;;;;;;;;;;;;;;;29.85;35.32;94020.63;4907303;29;7125;-62
2023/07/05 00:16:24;;;;;;;;;;;;;;;29.85;35.08;94011.56;4913688;29;7248;-62
2023/07/05 00:18:51;;;;;;;;;;;;;;;29.83;34.82;94011.38;4923667;29;7005;-63
2023/07/05 00:21:22;;;;;;;;;;;;;;;29.83;35.32;94011.38;4923470;29;9444;-62
2023/07/05 00:23:51;;;;;;;;;;;;;;;29.81;35.63;94003.59;4914758;29;7868;-62
2023/07/05 00:26:30;;;;;;;;;;;;;;;29.83;35.62;94009.34;4922459;29;7238;-63
2023/07/05 00:29:07;;;;;;;;;;;;;;;29.80;35.29;93991.03;4939257;28;7226;-62
2023/07/05 00:31:38;;;;;;;;;;;;;;;29.81;35.01;93986.97;4967752;28;7324;-63
2023/07/05 00:34:05;;;;;;;;;;;;;;;29.80;34.94;93983.44;4979028;28;8987;-62
2023/07/05 00:36:34;;;;;;;;;;;;;;;29.81;35.23;93986.97;4963537;28;6970;-62
2023/07/05 00:39:09;;;;;;;;;;;;;;;29.80;35.83;93977.16;4963796;28;9244;-63
2023/07/05 00:41:36;;;;;;;;;;;;;;;29.80;35.40;93982.69;4979313;28;6964;-63
2023/07/05 00:44:02;;;;;;;;;;;;;;;29.79;34.76;93975.69;4970161;28;8984;-62
2023/07/05 00:46:34;;;;;;;;;;;;;;;29.80;35.52;93971.63;4964208;28;7173;-62
2023/07/05 00:49:15;;;;;;;;;;;;;;;29.80;35.87;93968.84;4979849;28;9182;-62
2023/07/05 00:51:41;;;;;;;;;;;;;;;29.78;34.60;93965.88;4962914;28;8328;-62
2023/07/05 00:54:07;;;;;;;;;;;;;;;29.77;35.48;93956.09;4979428;28;7373;-63
2023/07/05 00:56:54;;;;;;;;;;;;;;;29.76;34.78;93949.06;4982897;28;7147;-62
2023/07/05 00:59:25;;;;;;;;;;;;;;;29.74;34.74;93951.63;4963565;28;8025;-62
2023/07/05 01:01:51;;;;;;;;;;;;;;;29.74;35.57;93948.88;4964590;28;7239;-62
2023/07/05 01:04:19;;;;;;;;;;;;;;;29.75;35.66;93953.13;4980933;28;8789;-62
2023/07/05 01:06:47;;;;;;;;;;;;;;;29.74;35.67;93944.06;4964599;28;6970;-63
2023/07/05 01:09:12;;;;;;;;;;;;;;;29.71;35.82;93947.19;4980810;28;7241;-63
2023/07/05 01:11:52;;;;;;;;;;;;;;;29.73;34.64;93950.13;4996448;28;9080;-62
2023/07/05 01:14:44;;;;;;;;;;;;;;;29.72;35.17;93943.84;4981351;28;7026;-62
2023/07/05 01:17:30;;;;;;;;;;;;;;;29.72;34.98;93946.63;4963869;28;9289;-62
2023/07/05 01:20:27;;;;;;;;;;;;;;;29.72;35.68;93943.09;4978204;28;8302;-62
2023/07/05 01:23:29;;;;;;;;;;;;;;;29.70;34.78;93951.22;4978989;28;9176;-62
2023/07/05 01:26:37;;;;;;;;;;;;;;;29.69;35.14;93955.28;4979690;28;7196;-62
2023/07/05 01:29:45;;;;;;;;;;;;;;;29.67;34.82;93980.03;4959701;28;7090;-62
2023/07/05 01:32:29;;;;;;;;;;;;;;;29.67;35.18;93991.88;4979942;28;7938;-62
2023/07/05 01:35:04;;;;;;;;;;;;;;;29.69;34.87;94032.88;4978044;28;7246;-62
2023/07/05 01:37:39;;;;;;;;;;;;;;;29.68;34.58;94056.38;4963839;28;7021;-62
2023/07/05 01:40:13;;;;;;;;;;;;;;;29.65;34.98;94035.28;4979663;28;8741;-62
2023/07/05 01:42:41;;;;;;;;;;;;;;;29.66;35.39;94020.88;4978852;28;9405;-62
2023/07/05 01:45:09;;;;;;;;;;;;;;;29.65;35.12;94019.41;4979054;28;7055;-62
2023/07/05 01:47:48;;;;;;;;;;;;;;;29.64;34.90;94008.88;4979132;28;7051;-62
2023/07/05 01:50:35;;;;;;;;;;;;;;;29.65;34.95;94010.34;4975381;28;8223;-62
2023/07/05 01:53:36;;;;;;;;;;;;;;;29.65;35.47;94004.78;4978219;28;7222;-62
2023/07/05 01:56:18;;;;;;;;;;;;;;;29.64;34.96;94017.19;4978167;28;6989;-62
2023/07/05 01:58:58;;;;;;;;;;;;;;;29.63;35.92;94019.19;4978027;28;9130;-62
2023/07/05 02:01:28;;;;;;;;;;;;;;;29.62;35.80;94022.53;4994803;28;7175;-62
2023/07/05 02:03:58;;;;;;;;;;;;;;;29.63;35.41;94021.97;4978786;28;7080;-62
2023/07/05 02:06:38;;;;;;;;;;;;;;;29.63;34.88;94032.31;4980158;28;9397;-62
2023/07/05 02:09:18;;;;;;;;;;;;;;;29.65;35.52;94038.06;4963827;28;7287;-62
2023/07/05 02:11:44;;;;;;;;;;;;;;;29.63;35.57;94035.09;4979327;28;7326;-62
2023/07/05 02:14:11;;;;;;;;;;;;;;;29.63;35.26;94035.84;4967488;28;7542;-62
2023/07/05 02:16:40;;;;;;;;;;;;;;;29.65;35.69;94030.47;4966043;28;8407;-62
2023/07/05 02:19:20;;;;;;;;;;;;;;;29.67;36.11;94013.28;4982435;28;7226;-62
2023/07/05 02:21:46;;;;;;;;;;;;;;;29.65;35.54;94026.97;4981059;28;7262;-62
2023/07/05 02:24:31;;;;;;;;;;;;;;;29.63;35.13;94035.09;4979918;28;9100;-62
2023/07/05 02:27:07;;;;;;;;;;;;;;;29.64;35.71;94042.13;4967091;28;9085;-62
2023/07/05 02:29:33;;;;;;;;;;;;;;;29.64;35.87;94044.91;4965436;28;7987;-62
2023/07/05 02:32:00;;;;;;;;;;;;;;;29.64;35.36;94047.66;4979313;28;8184;-62
2023/07/05 02:34:39;;;;;;;;;;;;;;;29.63;36.14;94054.47;4964042;28;9677;-62
2023/07/05 02:37:22;;;;;;;;;;;;;;;29.63;35.31;94060.03;4982171;28;7266;-62
2023/07/05 02:40:01;;;;;;;;;;;;;;;29.60;36.58;94064.63;4964424;28;8843;-62
2023/07/05 02:42:36;;;;;;;;;;;;;;;29.60;35.77;94061.84;4980024;28;9064;-62
2023/07/05 02:45:19;;;;;;;;;;;;;;;29.63;36.72;94068.34;4963845;28;9247;-62
2023/07/05 02:47:50;;;;;;;;;;;;;;;29.57;35.71;94068.50;4982361;28;8178;-62
2023/07/05 02:50:21;;;;;;;;;;;;;;;29.61;35.93;94073.69;4997859;28;7260;-62
2023/07/05 02:52:50;;;;;;;;;;;;;;;29.58;35.92;94069.97;4980603;28;7186;-62
2023/07/05 02:55:19;;;;;;;;;;;;;;;29.61;35.92;94077.22;4982295;28;7288;-62
2023/07/05 02:58:00;;;;;;;;;;;;;;;29.60;35.74;94072.22;4964400;28;6968;-62
2023/07/05 03:00:34;;;;;;;;;;;;;;;29.58;36.16;94069.25;4997305;28;6934;-62
2023/07/05 03:03:13;;;;;;;;;;;;;;;29.57;35.99;94068.50;4980747;28;7149;-62
2023/07/05 03:05:54;;;;;;;;;;;;;;;29.56;36.04;94069.78;4982334;28;7165;-62
2023/07/05 03:08:34;;;;;;;;;;;;;;;29.53;36.21;94093.06;4997409;28;9078;-62
2023/07/05 03:11:21;;;;;;;;;;;;;;;29.56;36.29;94099.53;4982987;28;6984;-62
2023/07/05 03:13:55;;;;;;;;;;;;;;;29.57;35.73;94103.78;4998842;28;8376;-62
2023/07/05 03:16:34;;;;;;;;;;;;;;;29.57;35.88;94098.25;4968325;28;7013;-62
2023/07/05 03:19:20;;;;;;;;;;;;;;;29.55;36.58;94095.28;4966552;28;9099;-62
2023/07/05 03:21:57;;;;;;;;;;;;;;;29.56;35.91;94096.75;4986414;28;7169;-62
2023/07/05 03:24:29;;;;;;;;;;;;;;;29.56;36.16;94091.19;4986702;28;6981;-62
2023/07/05 03:26:58;;;;;;;;;;;;;;;29.53;36.82;94087.50;4986488;28;7381;-62
2023/07/05 03:29:46;;;;;;;;;;;;;;;29.55;35.89;94084.19;4971101;28;7263;-62
2023/07/05 03:32:15;;;;;;;;;;;;;;;29.52;36.21;94082.50;4984474;28;8065;-62
2023/07/05 03:34:50;;;;;;;;;;;;;;;29.54;36.04;94082.69;5001751;28;7315;-63
2023/07/05 03:37:19;;;;;;;;;;;;;;;29.51;35.92;94069.94;4972224;28;7294;-62
2023/07/05 03:40:26;;;;;;;;;;;;;;;29.51;36.43;94073.47;4983424;28;7169;-63
2023/07/05 03:42:53;;;;;;;;;;;;;;;29.55;36.85;94079.41;4935922;28;8424;-62
2023/07/05 03:45:27;;;;;;;;;;;;;;;29.58;36.51;94088.66;4950798;28;9322;-62
2023/07/05 03:48:02;;;;;;;;;;;;;;;29.57;35.99;94081.63;4934805;28;9814;-62
2023/07/05 03:50:29;;;;;;;;;;;;;;;29.51;37.13;94078.25;4933307;28;7722;-62
2023/07/05 03:53:13;;;;;;;;;;;;;;;29.50;36.60;94082.31;4952303;28;9063;-62
2023/07/05 03:55:49;;;;;;;;;;;;;;;29.50;36.40;94085.06;4935598;28;8789;-62
2023/07/05 03:58:24;;;;;;;;;;;;;;;29.49;37.38;94086.38;4952136;28;7324;-62
2023/07/05 04:01:15;;;;;;;;;;;;;;;29.49;36.76;94086.38;4946837;28;7364;-62
2023/07/05 04:03:54;;;;;;;;;;;;;;;29.50;37.00;94079.53;4937589;28;7193;-62
2023/07/05 04:06:32;;;;;;;;;;;;;;;29.48;36.46;94082.84;4949270;28;7229;-62
2023/07/05 04:09:12;;;;;;;;;;;;;;;29.44;37.13;94090.78;4943574;28;7230;-62
2023/07/05 04:11:42;;;;;;;;;;;;;;;29.46;37.59;94095.75;4934681;28;7162;-62
2023/07/05 04:14:11;;;;;;;;;;;;;;;29.44;37.57;94084.47;4952605;28;7384;-62
2023/07/05 04:16:38;;;;;;;;;;;;;;;29.43;36.73;94091.28;4965365;28;9159;-62
2023/07/05 04:19:12;;;;;;;;;;;;;;;29.43;36.71;94094.06;4987621;28;9152;-62
2023/07/05 04:22:06;;;;;;;;;;;;;;;29.45;36.54;94114.41;4971028;28;8992;-62
2023/07/05 04:24:43;;;;;;;;;;;;;;;29.46;36.62;94126.25;4946088;28;7232;-62
2023/07/05 04:27:20;;;;;;;;;;;;;;;29.42;37.27;94120.31;4948792;28;8790;-62
2023/07/05 04:29:46;;;;;;;;;;;;;;;29.45;36.82;94116.47;4952550;28;7097;-62
2023/07/05 04:32:21;;;;;;;;;;;;;;;29.46;36.53;94112.38;4951904;28;7030;-62
2023/07/05 04:34:56;;;;;;;;;;;;;;;29.46;37.11;94115.16;4952964;28;7673;-62
2023/07/05 04:37:24;;;;;;;;;;;;;;;29.47;37.09;94113.88;4952835;28;9123;-62
2023/07/05 04:40:02;;;;;;;;;;;;;;;29.45;36.97;94116.47;4933508;28;9176;-62
2023/07/05 04:42:48;;;;;;;;;;;;;;;29.46;36.82;94115.16;4936313;28;7030;-62
2023/07/05 04:45:16;;;;;;;;;;;;;;;29.43;36.31;94130.09;4951919;28;9115;-54
2023/07/05 04:47:51;;;;;;;;;;;;;;;29.40;37.25;94126.41;4951400;28;7234;-54
2023/07/05 04:50:18;;;;;;;;;;;;;;;29.43;36.90;94135.63;4951027;28;7022;-54
2023/07/05 04:52:46;;;;;;;;;;;;;;;29.45;37.06;94127.53;4950855;28;7477;-54
2023/07/05 04:55:12;;;;;;;;;;;;;;;29.43;36.72;94127.31;4952848;28;9741;-54
2023/07/05 04:57:41;;;;;;;;;;;;;;;29.41;36.63;94143.75;4948865;28;7191;-54
2023/07/05 05:00:09;;;;;;;;;;;;;;;29.39;37.72;94140.78;4948426;28;7273;-55
2023/07/05 05:02:35;;;;;;;;;;;;;;;29.40;37.52;94145.03;4979364;28;7494;-55
2023/07/05 05:05:02;;;;;;;;;;;;;;;29.39;36.87;94143.56;4979278;28;9122;-54
2023/07/05 05:07:28;;;;;;;;;;;;;;;29.36;36.66;94134.28;4970112;28;7510;-54
2023/07/05 05:09:58;;;;;;;;;;;;;;;29.38;36.59;94122.69;4995637;28;9029;-54
2023/07/05 05:12:38;;;;;;;;;;;;;;;29.35;36.68;94116.19;4983096;28;9465;-55
2023/07/05 05:15:17;;;;;;;;;;;;;;;29.35;37.03;94124.50;5001371;28;7135;-55
2023/07/05 05:17:50;;;;;;;;;;;;;;;29.33;37.27;94124.31;4968065;28;7312;-54
2023/07/05 05:20:31;;;;;;;;;;;;;;;29.35;36.42;94123.75;4982574;28;9820;-54
2023/07/05 05:23:09;;;;;;;;;;;;;;;29.35;36.45;94129.28;4985673;28;7476;-54
2023/07/05 05:25:43;;;;;;;;;;;;;;;29.33;37.14;94124.31;4982395;28;9396;-55
2023/07/05 05:28:36;;;;;;;;;;;;;;;29.35;37.20;94126.53;4966482;28;8963;-54
2023/07/05 05:31:09;;;;;;;;;;;;;;;29.32;36.68;94133.88;5000316;28;7247;-54
2023/07/05 05:33:41;;;;;;;;;;;;;;;29.33;36.58;94129.09;4983964;28;6993;-54
2023/07/05 05:36:16;;;;;;;;;;;;;;;29.29;37.46;94112.06;4984587;28;9085;-54
2023/07/05 05:38:44;;;;;;;;;;;;;;;29.30;36.78;94125.38;4968860;28;9371;-55
2023/07/05 05:41:24;;;;;;;;;;;;;;;29.30;36.63;94127.41;4967629;28;7478;-54
2023/07/05 05:44:00;;;;;;;;;;;;;;;29.27;36.87;94122.97;4970032;28;6984;-55
2023/07/05 05:46:41;;;;;;;;;;;;;;;29.27;37.12;94122.97;4984278;28;7225;-54
2023/07/05 05:49:49;;;;;;;;;;;;;;;29.29;37.03;94120.38;4970336;28;9087;-54
2023/07/05 05:52:17;;;;;;;;;;;;;;;29.31;37.01;94121.34;4986391;28;7224;-55
2023/07/05 05:54:43;;;;;;;;;;;;;;;29.31;37.35;94126.88;4998091;28;6971;-61
2023/07/05 05:57:12;;;;;;;;;;;;;;;29.27;36.97;94120.94;4971571;28;7134;-61
2023/07/05 05:59:54;;;;;;;;;;;;;;;29.33;36.39;94129.09;4981585;28;7233;-61
2023/07/05 06:02:22;;;;;;;;;;;;;;;29.33;36.64;94123.56;4966238;28;9026;-61
2023/07/05 06:04:50;;;;;;;;;;;;;;;29.35;37.71;94121.72;4986206;28;7314;-61
2023/07/05 06:07:47;;;;;;;;;;;;;;;29.36;36.65;94119.72;4983822;28;7001;-61
2023/07/05 06:10:13;;;;;;;;;;;;;;;29.38;37.11;94119.91;4963612;28;9091;-62
2023/07/05 06:12:49;;;;;;;;;;;;;;;29.36;37.07;94111.41;4952313;28;7209;-62
2023/07/05 06:15:18;;;;;;;;;;;;;;;29.36;36.97;94111.41;4946740;28;7702;-61
2023/07/05 06:17:46;;;;;;;;;;;;;;;29.36;36.80;94111.41;4970829;28;9335;-61
2023/07/05 06:20:16;;;;;;;;;;;;;;;29.36;37.62;94111.41;4969597;28;7074;-61
2023/07/05 06:22:44;;;;;;;;;;;;;;;29.38;37.13;94117.13;4953462;28;6985;-61
2023/07/05 06:25:10;;;;;;;;;;;;;;;29.37;36.72;94107.34;4967981;28;8165;-61
2023/07/05 06:27:45;;;;;;;;;;;;;;;29.38;36.72;94109.56;4968802;28;9172;-61
2023/07/05 06:30:14;;;;;;;;;;;;;;;29.35;37.04;94115.44;4967237;28;6982;-61
2023/07/05 06:32:45;;;;;;;;;;;;;;;29.34;37.15;94111.19;4966802;28;6973;-61
2023/07/05 06:35:11;;;;;;;;;;;;;;;29.34;37.12;94113.97;4966339;28;9135;-61
2023/07/05 06:37:47;;;;;;;;;;;;;;;29.33;36.82;94118.75;4958133;28;7417;-61
2023/07/05 06:40:21;;;;;;;;;;;;;;;29.32;36.93;94114.50;4969171;28;6968;-61
2023/07/05 06:42:58;;;;;;;;;;;;;;;29.35;37.36;94126.53;4968779;28;8777;-61
2023/07/05 06:45:46;;;;;;;;;;;;;;;29.36;37.27;94128.03;4954528;28;7255;-61
2023/07/05 06:48:28;;;;;;;;;;;;;;;29.36;37.25;94139.09;4968309;28;8149;-61
2023/07/05 06:51:01;;;;;;;;;;;;;;;29.35;36.84;94137.59;4964790;28;8926;-61
2023/07/05 06:53:29;;;;;;;;;;;;;;;29.33;37.50;94129.84;4976900;28;8852;-62
2023/07/05 06:55:56;;;;;;;;;;;;;;;29.39;36.80;94133.22;4965125;28;8502;-62
2023/07/05 06:58:22;;;;;;;;;;;;;;;29.36;37.51;94128.03;4965429;28;7197;-62
2023/07/05 07:00:50;;;;;;;;;;;;;;;29.37;37.50;94130.25;4967066;28;6992;-62
2023/07/05 07:03:44;;;;;;;;;;;;;;;29.41;37.24;94140.97;4986816;28;6995;-62
2023/07/05 07:06:32;;;;;;;;;;;;;;;29.38;37.41;94142.81;4957040;28;7185;-55
2023/07/05 07:09:33;;;;;;;;;;;;;;;29.38;36.56;94147.63;4972054;28;8583;-55
2023/07/05 07:11:59;;;;;;;;;;;;;;;29.41;37.33;94144.50;4909350;29;9192;-55
2023/07/05 07:14:38;;;;;;;;;;;;;;;29.40;36.57;94145.78;4923292;29;10845;-55
2023/07/05 07:17:05;;;;;;;;;;;;;;;29.39;37.19;94149.09;4925724;29;8588;-55
2023/07/05 07:19:33;;;;;;;;;;;;;;;29.39;38.05;94160.16;4924713;29;7024;-55
2023/07/05 07:22:16;;;;;;;;;;;;;;;29.39;37.85;94160.16;4910584;29;8783;-54
2023/07/05 07:25:23;;;;;;;;;;;;;;;29.38;37.47;94161.47;4893796;29;7029;-55
2023/07/05 07:28:00;;;;;;;;;;;;;;;29.36;37.58;94161.28;4867794;29;8936;-55
2023/07/05 07:30:46;;;;;;;;;;;;;;;29.38;37.42;94159.44;4861298;29;7508;-54
2023/07/05 07:33:12;;;;;;;;;;;;;;;29.38;37.19;94162.22;4865343;29;9221;-55
2023/07/05 07:35:50;;;;;;;;;;;;;;;29.37;36.88;94159.97;4852777;29;7154;-55
2023/07/05 07:38:25;;;;;;;;;;;;;;;29.36;37.27;94158.50;4867972;29;7155;-55
2023/07/05 07:41:16;;;;;;;;;;;;;;;29.36;37.73;94164.03;4860323;29;7289;-55
2023/07/05 07:44:01;;;;;;;;;;;;;;;29.37;36.91;94154.44;4862530;29;7266;-55
2023/07/05 07:46:39;;;;;;;;;;;;;;;29.37;36.97;94157.19;4878739;29;6994;-55
2023/07/05 07:49:09;;;;;;;;;;;;;;;29.34;37.21;94161.78;4888431;29;7239;-55
2023/07/05 07:51:44;;;;;;;;;;;;;;;29.34;37.07;94170.09;4905186;29;7325;-54
2023/07/05 07:54:26;;;;;;;;;;;;;;;29.34;37.38;94167.34;4889283;29;8212;-55
2023/07/05 07:56:55;;;;;;;;;;;;;;;29.36;37.49;94172.34;4884793;29;9177;-55
2023/07/05 07:59:24;;;;;;;;;;;;;;;29.35;37.77;94176.41;4964877;28;7002;-55
2023/07/05 08:01:50;;;;;;;;;;;;;;;29.32;37.63;94183.75;4995470;28;7254;-55
2023/07/05 08:04:17;;;;;;;;;;;;;;;29.34;37.67;94183.25;4980452;28;7233;-55
2023/07/05 08:06:56;;;;;;;;;;;;;;;29.34;36.96;94191.56;4983707;28;9380;-55
2023/07/05 08:09:39;;;;;;;;;;;;;;;29.34;38.10;94202.63;4968068;28;7544;-55
2023/07/05 08:12:08;;;;;;;;;;;;;;;29.31;37.14;94203.69;4984235;28;9093;-55
2023/07/05 08:14:38;;;;;;;;;;;;;;;29.34;37.78;94202.63;4979750;28;7494;-60
2023/07/05 08:17:08;;;;;;;;;;;;;;;29.31;37.69;94198.16;4981696;28;7315;-60
2023/07/05 08:19:37;;;;;;;;;;;;;;;29.33;36.86;94201.13;4983225;28;7394;-61
2023/07/05 08:22:03;;;;;;;;;;;;;;;29.32;36.86;94197.59;4980991;28;7207;-61
2023/07/05 08:24:29;;;;;;;;;;;;;;;29.34;37.58;94214.44;4999786;28;6983;-61
2023/07/05 08:27:03;;;;;;;;;;;;;;;29.35;37.34;94210.41;4985448;28;8430;-61
2023/07/05 08:29:58;;;;;;;;;;;;;;;29.35;37.05;94213.16;4984536;28;7248;-60
2023/07/05 08:32:33;;;;;;;;;;;;;;;29.34;37.78;94219.25;4962481;28;9543;-61
2023/07/05 08:35:30;;;;;;;;;;;;;;;29.34;37.08;94214.44;4963292;28;7219;-61
2023/07/05 08:38:01;;;;;;;;;;;;;;;29.36;37.27;94222.94;4943065;28;7296;-61
2023/07/05 08:40:38;;;;;;;;;;;;;;;29.37;36.89;94218.16;4941018;28;8182;-61
2023/07/05 08:43:18;;;;;;;;;;;;;;;29.35;37.33;94220.72;4941604;28;7188;-61
2023/07/05 08:45:51;;;;;;;;;;;;;;;29.35;37.44;94248.44;4927835;28;9142;-60
2023/07/05 08:48:34;;;;;;;;;;;;;;;29.31;38.36;94242.50;4943020;28;7353;-60
2023/07/05 08:51:05;;;;;;;;;;;;;;;29.38;37.39;94248.13;4925325;28;9174;-60
2023/07/05 08:53:47;;;;;;;;;;;;;;;29.49;37.58;94244.34;4940881;28;7067;-60
2023/07/05 08:56:32;;;;;;;;;;;;;;;29.56;37.30;94249.94;4940566;28;7231;-61
2023/07/05 08:59:13;;;;;;;;;;;;;;;29.63;36.65;94245.75;4940999;28;7277;-60
2023/07/05 09:01:42;;;;;;;;;;;;;;;29.65;37.61;94257.03;4927087;28;7224;-62
2023/07/05 09:04:29;;;;;;;;;;;;;;;29.62;36.91;94252.59;4940804;28;7224;-61
2023/07/05 09:07:16;;;;;;;;;;;;;;;29.60;36.92;94258.66;4926049;28;7291;-62
2023/07/05 09:10:12;;;;;;;;;;;;;;;29.57;37.44;94261.78;4957296;28;7202;-61
2023/07/05 09:13:20;;;;;;;;;;;;;;;29.53;37.87;94266.91;4959487;28;9056;-61
2023/07/05 09:16:33;;;;;;;;;;;;;;;29.48;36.82;94262.22;4982806;28;7260;-61
2023/07/05 09:19:56;;;;;;;;;;;;;;;29.49;37.71;94266.50;4885570;29;8720;-61
2023/07/05 09:22:40;;;;;;;;;;;;;;;29.45;39.61;94264.06;4890117;29;6961;-61
2023/07/05 09:25:22;;;;;;;;;;;;;;;29.47;39.07;94271.84;4858595;29;7122;-62
2023/07/05 09:28:14;;;;;;;;;;;;;;;29.48;37.76;94270.53;4888665;29;8708;-62
2023/07/05 09:30:57;;;;;;;;;;;;;;;29.45;37.60;94272.38;4874391;29;7055;-62
2023/07/05 09:33:48;;;;;;;;;;;;;;;29.47;37.65;94264.25;4875832;29;9169;-61
2023/07/05 09:36:23;;;;;;;;;;;;;;;29.43;37.93;94268.63;4875863;29;6945;-62
2023/07/05 09:39:31;;;;;;;;;;;;;;;29.46;38.27;94273.13;4874559;29;7267;-62
2023/07/05 09:42:23;;;;;;;;;;;;;;;29.45;38.72;94275.13;4858208;29;8426;-62
2023/07/05 09:44:50;;;;;;;;;;;;;;;29.45;39.19;94275.13;4889319;29;8223;-62
2023/07/05 09:47:22;;;;;;;;;;;;;;;29.43;38.59;94271.41;4856864;29;9074;-61
2023/07/05 09:49:57;;;;;;;;;;;;;;;29.42;38.74;94265.16;4854221;29;9356;-62
2023/07/05 09:52:37;;;;;;;;;;;;;;;29.42;38.90;94273.47;4867773;29;7022;-62
2023/07/05 09:55:11;;;;;;;;;;;;;;;29.42;39.59;94258.84;4856825;29;7083;-61
2023/07/05 09:57:38;;;;;;;;;;;;;;;29.45;38.55;94261.28;4984707;28;7224;-62
2023/07/05 10:00:24;;;;;;;;;;;;;;;29.46;38.61;94259.25;4980281;28;7151;-62
2023/07/05 10:03:09;;;;;;;;;;;;;;;29.46;39.72;94262.78;4980874;28;9778;-62
2023/07/05 10:05:35;;;;;;;;;;;;;;;29.45;39.47;94269.59;4982676;28;9080;-62
2023/07/05 10:08:16;;;;;;;;;;;;;;;29.44;38.64;94276.44;4967153;28;9484;-62
2023/07/05 10:10:56;;;;;;;;;;;;;;;29.45;39.27;94279.94;4981954;28;9478;-62
2023/07/05 10:13:32;;;;;;;;;;;;;;;29.46;39.66;94281.44;4966042;28;7223;-62
2023/07/05 10:16:01;;;;;;;;;;;;;;;29.46;38.80;94287.72;4982906;28;7105;-62
2023/07/05 10:18:35;;;;;;;;;;;;;;;29.46;39.62;94279.41;4964403;28;7319;-62
2023/07/05 10:21:30;;;;;;;;;;;;;;;29.45;39.27;94280.69;4999297;28;7189;-62
2023/07/05 10:24:11;;;;;;;;;;;;;;;29.45;39.32;94293.81;4983473;28;9373;-62
2023/07/05 10:26:41;;;;;;;;;;;;;;;29.46;39.22;94298.06;4965260;28;9061;-62
2023/07/05 10:29:21;;;;;;;;;;;;;;;29.43;39.33;94299.88;4968484;28;7445;-62
2023/07/05 10:31:57;;;;;;;;;;;;;;;29.42;39.32;94294.88;4972146;28;9119;-62
2023/07/05 10:34:25;;;;;;;;;;;;;;;29.44;38.94;94292.31;4986665;28;9259;-61
2023/07/05 10:37:03;;;;;;;;;;;;;;;29.43;39.87;94293.56;4986913;28;7201;-62
2023/07/05 10:39:30;;;;;;;;;;;;;;;29.44;39.70;94293.06;4993556;28;7128;-61
2023/07/05 10:42:02;;;;;;;;;;;;;;;29.43;39.62;94290.81;4967036;28;9001;-61
2023/07/05 10:44:35;;;;;;;;;;;;;;;29.43;39.51;94288.78;4985384;28;9097;-61
2023/07/05 10:47:04;;;;;;;;;;;;;;;29.42;39.33;94295.63;4983115;28;8624;-60
2023/07/05 10:49:33;;;;;;;;;;;;;;;29.45;39.35;94293.81;4969439;28;7314;-62
2023/07/05 10:52:10;;;;;;;;;;;;;;;29.45;39.63;94296.59;4983155;28;7309;-62
2023/07/05 10:54:49;;;;;;;;;;;;;;;29.44;39.81;94281.22;4988138;28;7240;-61
2023/07/05 10:57:23;;;;;;;;;;;;;;;29.44;39.96;94284.75;4970504;28;7524;-60
2023/07/05 10:59:58;;;;;;;;;;;;;;;29.43;39.80;94288.03;4985812;28;9286;-62
2023/07/05 11:02:48;;;;;;;;;;;;;;;29.45;39.25;94296.59;4969048;28;7481;-62
2023/07/05 11:05:47;;;;;;;;;;;;;;;29.46;38.69;94298.06;4972443;28;7270;-61
2023/07/05 11:08:37;;;;;;;;;;;;;;;29.44;38.52;94298.59;4956437;28;7191;-60
2023/07/05 11:11:37;;;;;;;;;;;;;;;29.44;39.43;94304.13;4973122;28;7259;-62
2023/07/05 11:14:18;;;;;;;;;;;;;;;29.43;39.65;94299.13;4971888;28;6954;-61
2023/07/05 11:16:46;;;;;;;;;;;;;;;29.43;39.02;94310.94;4969320;28;7318;-61
2023/07/05 11:19:20;;;;;;;;;;;;;;;29.41;39.82;94301.69;4969728;28;7262;-62
2023/07/05 11:21:48;;;;;;;;;;;;;;;29.41;39.77;94305.22;4968948;28;9302;-62
2023/07/05 11:24:40;;;;;;;;;;;;;;;29.43;40.02;94301.88;4951237;28;7451;-61
2023/07/05 11:27:24;;;;;;;;;;;;;;;29.43;39.55;94296.34;4968779;28;7685;-61
2023/07/05 11:29:52;;;;;;;;;;;;;;;29.41;39.47;94307.22;4966692;28;7388;-61
2023/07/05 11:32:21;;;;;;;;;;;;;;;29.41;39.79;94296.16;4952880;28;7988;-60
2023/07/05 11:34:51;;;;;;;;;;;;;;;29.42;39.87;94294.88;4952681;28;7422;-60
2023/07/05 11:37:23;;;;;;;;;;;;;;;29.45;39.57;94299.34;4970996;28;9695;-60
2023/07/05 11:40:00;;;;;;;;;;;;;;;29.44;39.85;94295.06;4970200;28;7278;-60
2023/07/05 11:42:27;;;;;;;;;;;;;;;29.44;38.88;94295.06;4970083;28;9148;-61
2023/07/05 11:44:55;;;;;;;;;;;;;;;29.43;38.95;94299.13;4978599;28;7377;-63
2023/07/05 11:47:23;;;;;;;;;;;;;;;29.43;39.68;94297.09;4972389;28;7238;-62
2023/07/05 11:49:56;;;;;;;;;;;;;;;29.42;38.95;94298.41;4963934;28;7486;-64
2023/07/05 11:52:33;;;;;;;;;;;;;;;29.39;39.86;94299.47;4996954;28;7263;-64
2023/07/05 11:55:03;;;;;;;;;;;;;;;29.40;39.54;94303.72;4964205;28;7192;-64
2023/07/05 11:57:38;;;;;;;;;;;;;;;29.40;39.49;94305.75;4981493;28;7070;-63
2023/07/05 12:00:22;;;;;;;;;;;;;;;29.41;38.89;94301.69;4967959;28;7286;-63
2023/07/05 12:03:32;;;;;;;;;;;;;;;29.42;39.10;94303.19;4984929;28;9153;-63
2023/07/05 12:06:02;;;;;;;;;;;;;;;29.39;38.96;94310.53;4971705;28;7652;-63
2023/07/05 12:08:45;;;;;;;;;;;;;;;29.38;39.65;94313.88;4971289;28;7785;-63
2023/07/05 12:11:14;;;;;;;;;;;;;;;29.38;38.77;94313.88;4944970;28;9449;-63
2023/07/05 12:13:41;;;;;;;;;;;;;;;29.38;38.63;94320.16;4952532;28;7055;-64
2023/07/05 12:16:18;;;;;;;;;;;;;;;29.38;38.64;94316.63;4969216;28;7297;-64
2023/07/05 12:19:00;;;;;;;;;;;;;;;29.41;38.67;94315.53;4954589;28;7433;-64
2023/07/05 12:21:32;;;;;;;;;;;;;;;29.41;39.19;94323.84;4948595;28;7226;-64
2023/07/05 12:24:49;;;;;;;;;;;;;;;29.39;38.85;94321.63;4972134;28;6994;-64
2023/07/05 12:27:35;;;;;;;;;;;;;;;29.41;39.13;94318.31;4933343;29;8772;-64
2023/07/05 12:30:03;;;;;;;;;;;;;;;29.39;38.85;94320.88;4917711;29;9427;-63
2023/07/05 12:32:38;;;;;;;;;;;;;;;29.40;39.12;94328.69;4933590;29;7241;-63
2023/07/05 12:35:20;;;;;;;;;;;;;;;29.41;39.26;94321.84;4933679;29;7242;-63
2023/07/05 12:37:50;;;;;;;;;;;;;;;29.40;38.80;94320.34;4931294;29;9104;-63
2023/07/05 12:40:26;;;;;;;;;;;;;;;29.41;39.05;94340.47;4924665;28;7365;-63
2023/07/05 12:43:04;;;;;;;;;;;;;;;29.34;39.20;94328.03;4943917;28;9359;-63
2023/07/05 12:45:36;;;;;;;;;;;;;;;29.39;38.85;94327.16;4940749;28;7341;-63
2023/07/05 12:48:14;;;;;;;;;;;;;;;29.43;39.28;94324.06;4925826;28;7271;-64
2023/07/05 12:50:42;;;;;;;;;;;;;;;29.42;38.45;94319.81;4959599;28;7243;-64
2023/07/05 12:53:39;;;;;;;;;;;;;;;29.42;39.36;94331.66;4940791;28;6993;-64
2023/07/05 12:56:16;;;;;;;;;;;;;;;29.42;38.52;94325.34;4960446;28;7685;-57
2023/07/05 12:59:23;;;;;;;;;;;;;;;29.42;38.98;94325.34;4926065;28;7046;-57
2023/07/05 13:01:52;;;;;;;;;;;;;;;29.41;39.12;94321.84;4900455;29;7058;-57
2023/07/05 13:04:29;;;;;;;;;;;;;;;29.41;38.96;94313.53;4893066;29;9161;-57
2023/07/05 13:07:04;;;;;;;;;;;;;;;29.45;38.90;94313.22;4904642;29;7382;-57
2023/07/05 13:10:11;;;;;;;;;;;;;;;29.47;38.53;94307.88;4890289;29;7354;-57
2023/07/05 13:12:59;;;;;;;;;;;;;;;29.47;38.01;94305.09;4910296;29;7017;-57
2023/07/05 13:15:37;;;;;;;;;;;;;;;29.46;38.94;94304.34;4878427;29;7017;-57
2023/07/05 13:18:25;;;;;;;;;;;;;;;29.52;38.63;94304.22;4920303;29;7276;-57
2023/07/05 13:21:15;;;;;;;;;;;;;;;29.50;38.37;94298.47;4911749;29;7082;-57
2023/07/05 13:24:28;;;;;;;;;;;;;;;29.52;39.54;94301.44;4905706;29;8777;-57
2023/07/05 13:27:28;;;;;;;;;;;;;;;29.51;39.09;94322.13;4873099;29;7133;-57
2023/07/05 13:29:55;;;;;;;;;;;;;;;29.50;39.29;94298.47;4853054;29;7006;-57
2023/07/05 13:32:46;;;;;;;;;;;;;;;29.51;39.45;94311.03;4861199;29;9603;-57
2023/07/05 13:35:41;;;;;;;;;;;;;;;29.53;40.19;94316.78;4874797;29;7224;-57
2023/07/05 13:38:35;;;;;;;;;;;;;;;29.53;39.79;94316.78;4822493;29;6926;-57
2023/07/05 13:41:24;;;;;;;;;;;;;;;29.54;38.67;94323.81;4838237;29;7194;-57
2023/07/05 13:43:57;;;;;;;;;;;;;;;29.48;39.08;94312.88;4838658;29;9131;-57
2023/07/05 13:46:26;;;;;;;;;;;;;;;29.53;38.90;94317.53;4838080;29;7251;-57
2023/07/05 13:49:10;;;;;;;;;;;;;;;29.53;38.93;94320.31;4823054;29;9393;-57
2023/07/05 13:51:55;;;;;;;;;;;;;;;29.54;38.39;94307.94;4815250;29;7937;-57